Terminal Aerodrome Forecast
Issued by NWS

Home | Current Version | Previous Version | Text Only | Print | Product List | Glossary On
Versions: 1 2 3 4 5 6 7 8 9 10 11 12 13 14 15
000
FTUS46 KPDT 271120
TAFYKM
TAF
KYKM 271120Z 2712/2812 30010KT P6SM SCT120 SCT250
     FM272200 31014KT P6SM SCT100 BKN250
     FM280500 30008KT P6SM SCT100 BKN200=

USA.gov is the U.S. government's official web portal to all federal, state and local government web resources and services.